Time;durP1;ratioP1;P1;durP2;ratioP2;P2;SDS_P1;SDS_P2;PMS_P1;PMS_P2;Temp;Humidity;BMP_temperature;BMP_pressure;BME280_temperature;BME280_humidity;BME280_pressure;Samples;Min_cycle;Max_cycle;Signal;HPM_P1;HPM_P2
2024/02/05 00:00:11;;;;;;;18.60;3.42;;;;;;;;;;5062825;28;20044;-69
2024/02/05 00:02:38;;;;;;;16.52;2.08;;;;;;;;;;5078752;28;20032;-69
2024/02/05 00:05:05;;;;;;;23.60;3.83;;;;;;;;;;5070306;28;20036;-68
2024/02/05 00:07:30;;;;;;;14.23;2.40;;;;;;;;;;5065912;28;20077;-68
2024/02/05 00:09:56;;;;;;;13.68;3.10;;;;;;;;;;5062986;28;20104;-68
2024/02/05 00:12:21;;;;;;;13.15;1.80;;;;;;;;;;5066149;28;20040;-68
2024/02/05 00:14:47;;;;;;;21.58;2.90;;;;;;;;;;5073370;28;20521;-68
2024/02/05 00:17:12;;;;;;;16.40;3.03;;;;;;;;;;5078168;28;20040;-69
2024/02/05 00:19:37;;;;;;;12.90;2.63;;;;;;;;;;5065277;28;20067;-69
2024/02/05 00:22:03;;;;;;;19.92;1.42;;;;;;;;;;5080080;28;20028;-69
2024/02/05 00:24:28;;;;;;;10.32;2.28;;;;;;;;;;5079537;28;20032;-69
2024/02/05 00:26:53;;;;;;;11.10;2.63;;;;;;;;;;5087000;28;20047;-69
2024/02/05 00:29:19;;;;;;;11.77;2.00;;;;;;;;;;5072712;28;20040;-69
2024/02/05 00:31:44;;;;;;;11.15;1.95;;;;;;;;;;5083999;28;20036;-69
2024/02/05 00:34:09;;;;;;;22.38;3.22;;;;;;;;;;5071239;28;20072;-69
2024/02/05 00:36:35;;;;;;;8.75;2.22;;;;;;;;;;5075636;28;20536;-68
2024/02/05 00:39:00;;;;;;;17.67;2.88;;;;;;;;;;5077611;28;20476;-69
2024/02/05 00:41:25;;;;;;;12.75;2.25;;;;;;;;;;5080058;28;20105;-68
2024/02/05 00:43:51;;;;;;;13.25;2.78;;;;;;;;;;5078767;28;20387;-69
2024/02/05 00:46:23;;;;;;;9.65;2.13;;;;;;;;;;5073287;28;20031;-69
2024/02/05 00:48:49;;;;;;;14.05;3.13;;;;;;;;;;5078791;28;20033;-69
2024/02/05 00:51:14;;;;;;;16.90;2.92;;;;;;;;;;5082865;28;20044;-69
2024/02/05 00:53:40;;;;;;;9.70;2.90;;;;;;;;;;5079125;28;20033;-68
2024/02/05 00:56:05;;;;;;;10.68;2.60;;;;;;;;;;5066458;28;20037;-70
2024/02/05 00:58:30;;;;;;;9.95;2.20;;;;;;;;;;5070680;28;20064;-69
2024/02/05 01:00:56;;;;;;;16.92;2.30;;;;;;;;;;5075496;28;20148;-69
2024/02/05 01:03:21;;;;;;;14.10;3.03;;;;;;;;;;5080015;28;20662;-69
2024/02/05 01:05:46;;;;;;;6.40;2.03;;;;;;;;;;5083826;28;20040;-68
2024/02/05 01:08:12;;;;;;;23.05;3.58;;;;;;;;;;5066078;28;20043;-68
2024/02/05 01:10:37;;;;;;;14.68;2.33;;;;;;;;;;5061630;28;20077;-68
2024/02/05 01:13:04;;;;;;;11.93;2.72;;;;;;;;;;5081364;28;20071;-69
2024/02/05 01:15:29;;;;;;;13.73;3.50;;;;;;;;;;5074642;28;20468;-69
2024/02/05 01:17:54;;;;;;;14.48;4.03;;;;;;;;;;5079248;28;20043;-69
2024/02/05 01:20:20;;;;;;;12.25;2.97;;;;;;;;;;5072980;28;20032;-69
2024/02/05 01:22:45;;;;;;;15.15;2.78;;;;;;;;;;5074430;28;20028;-69
2024/02/05 01:25:11;;;;;;;8.90;2.40;;;;;;;;;;5073229;28;20480;-69
2024/02/05 01:27:36;;;;;;;22.05;3.42;;;;;;;;;;5075792;28;20032;-68
2024/02/05 01:30:03;;;;;;;8.45;2.35;;;;;;;;;;5068645;28;20035;-69
2024/02/05 01:32:28;;;;;;;12.50;3.17;;;;;;;;;;5075529;28;20483;-68
2024/02/05 01:34:54;;;;;;;11.38;2.85;;;;;;;;;;5067562;28;20040;-70
2024/02/05 01:37:19;;;;;;;17.38;2.78;;;;;;;;;;5085979;28;20032;-68
2024/02/05 01:39:44;;;;;;;8.02;2.53;;;;;;;;;;5077690;28;20071;-68
2024/02/05 01:42:10;;;;;;;13.25;2.90;;;;;;;;;;5085977;28;20459;-68
2024/02/05 01:44:35;;;;;;;18.70;3.28;;;;;;;;;;5073649;28;20034;-69
2024/02/05 01:47:01;;;;;;;11.02;3.25;;;;;;;;;;5083919;28;20036;-69
2024/02/05 01:49:26;;;;;;;15.35;3.55;;;;;;;;;;5080291;28;20060;-69
2024/02/05 01:51:54;;;;;;;16.38;3.70;;;;;;;;;;5077823;28;20439;-68
2024/02/05 01:54:21;;;;;;;24.02;4.35;;;;;;;;;;5074574;28;20392;-69
2024/02/05 01:56:47;;;;;;;14.48;4.38;;;;;;;;;;5087601;28;20081;-68
2024/02/05 01:59:13;;;;;;;12.48;3.15;;;;;;;;;;5061909;28;20119;-68
2024/02/05 02:01:40;;;;;;;13.35;2.42;;;;;;;;;;5074334;28;20041;-68
2024/02/05 02:04:06;;;;;;;13.75;3.72;;;;;;;;;;5085093;28;20044;-69
2024/02/05 02:06:33;;;;;;;9.23;2.45;;;;;;;;;;5067791;28;20553;-69
2024/02/05 02:08:59;;;;;;;12.05;3.20;;;;;;;;;;5063340;28;20439;-68
2024/02/05 02:11:25;;;;;;;15.68;3.35;;;;;;;;;;5066918;28;20040;-68
2024/02/05 02:13:50;;;;;;;18.33;4.05;;;;;;;;;;5064213;28;20024;-69
2024/02/05 02:16:25;;;;;;;15.88;4.43;;;;;;;;;;5068654;28;20068;-68
2024/02/05 02:18:51;;;;;;;14.77;3.25;;;;;;;;;;5059723;28;20386;-69
2024/02/05 02:21:19;;;;;;;15.50;3.03;;;;;;;;;;5072190;28;20039;-69
2024/02/05 02:23:46;;;;;;;22.77;4.18;;;;;;;;;;5068685;28;20131;-69
2024/02/05 02:26:12;;;;;;;17.63;3.05;;;;;;;;;;5067426;28;20033;-68
2024/02/05 02:28:37;;;;;;;25.65;3.17;;;;;;;;;;5071773;28;20035;-68
2024/02/05 02:31:03;;;;;;;9.95;2.15;;;;;;;;;;5070413;28;20064;-70
2024/02/05 02:34:06;;;;;;;14.13;3.30;;;;;;;;;;5075789;28;20031;-69
2024/02/05 02:36:35;;;;;;;19.35;2.67;;;;;;;;;;5070463;28;20050;-69
2024/02/05 02:39:12;;;;;;;15.60;2.95;;;;;;;;;;5078210;28;20065;-69
2024/02/05 02:41:40;;;;;;;12.05;2.88;;;;;;;;;;5074715;28;20448;-68
2024/02/05 02:44:05;;;;;;;28.10;3.38;;;;;;;;;;5074722;28;20396;-69
2024/02/05 02:46:31;;;;;;;13.23;2.30;;;;;;;;;;5074655;28;20039;-69
2024/02/05 02:48:57;;;;;;;15.75;2.78;;;;;;;;;;5071920;28;20040;-69
2024/02/05 02:51:23;;;;;;;13.57;2.65;;;;;;;;;;5070716;28;20037;-68
2024/02/05 02:53:49;;;;;;;9.93;2.90;;;;;;;;;;5070664;28;20563;-68
2024/02/05 02:56:14;;;;;;;7.05;2.20;;;;;;;;;;5079301;28;20077;-68
2024/02/05 02:58:39;;;;;;;12.68;3.17;;;;;;;;;;5070452;28;20398;-69
2024/02/05 03:01:05;;;;;;;15.43;3.10;;;;;;;;;;5076188;28;20535;-69
2024/02/05 03:03:30;;;;;;;8.85;2.45;;;;;;;;;;5068782;28;20036;-69
2024/02/05 03:05:56;;;;;;;10.57;2.42;;;;;;;;;;5076718;28;20037;-69
2024/02/05 03:08:22;;;;;;;11.43;3.20;;;;;;;;;;5080471;28;20115;-69
2024/02/05 03:10:47;;;;;;;19.05;3.03;;;;;;;;;;5068204;28;20037;-68
2024/02/05 03:13:13;;;;;;;19.83;3.33;;;;;;;;;;5071923;28;20064;-69
2024/02/05 03:15:38;;;;;;;20.42;2.75;;;;;;;;;;5062452;28;20037;-69
2024/02/05 03:18:04;;;;;;;14.60;2.47;;;;;;;;;;5064142;28;20528;-69
2024/02/05 03:20:37;;;;;;;15.52;2.83;;;;;;;;;;5067658;28;20047;-69
2024/02/05 03:23:04;;;;;;;13.98;2.78;;;;;;;;;;5075537;28;20055;-69
2024/02/05 03:25:30;;;;;;;11.43;2.72;;;;;;;;;;5063053;28;20090;-69
2024/02/05 03:27:56;;;;;;;15.50;2.30;;;;;;;;;;5058444;28;20040;-69
2024/02/05 03:30:22;;;;;;;12.80;2.50;;;;;;;;;;5072984;28;20025;-69
2024/02/05 03:32:47;;;;;;;14.02;3.00;;;;;;;;;;5066371;28;20037;-69
2024/02/05 03:35:15;;;;;;;26.80;4.72;;;;;;;;;;5066984;28;20388;-68
2024/02/05 03:37:41;;;;;;;18.70;4.55;;;;;;;;;;5055620;28;20025;-69
2024/02/05 03:40:07;;;;;;;9.63;2.60;;;;;;;;;;5073046;28;20041;-68
2024/02/05 03:42:33;;;;;;;17.75;3.70;;;;;;;;;;5069717;28;20032;-69
2024/02/05 03:44:58;;;;;;;18.80;3.50;;;;;;;;;;5076250;28;20092;-69
2024/02/05 03:47:23;;;;;;;12.45;3.00;;;;;;;;;;5089267;28;20113;-68
2024/02/05 03:49:49;;;;;;;12.35;3.17;;;;;;;;;;5072092;28;20041;-69
2024/02/05 03:52:14;;;;;;;15.98;3.17;;;;;;;;;;5085673;28;20153;-69
2024/02/05 03:54:40;;;;;;;11.18;3.03;;;;;;;;;;5087398;28;20109;-68
2024/02/05 03:57:06;;;;;;;12.88;3.03;;;;;;;;;;5059197;28;20041;-68
2024/02/05 03:59:31;;;;;;;12.98;2.80;;;;;;;;;;5070620;28;20034;-68
2024/02/05 04:01:57;;;;;;;12.10;2.53;;;;;;;;;;5067035;28;20060;-68
2024/02/05 04:04:22;;;;;;;19.33;3.35;;;;;;;;;;5063612;28;20079;-68
2024/02/05 04:06:47;;;;;;;7.45;2.42;;;;;;;;;;5073337;28;20036;-68
2024/02/05 04:09:13;;;;;;;7.45;2.17;;;;;;;;;;5065148;28;20045;-69
2024/02/05 04:11:39;;;;;;;12.32;2.63;;;;;;;;;;5064676;28;20120;-68
2024/02/05 04:14:05;;;;;;;11.30;3.08;;;;;;;;;;5080009;28;20085;-69
2024/02/05 04:16:31;;;;;;;10.50;2.90;;;;;;;;;;5069611;28;20472;-68
2024/02/05 04:18:56;;;;;;;9.05;2.70;;;;;;;;;;5079282;28;20040;-68
2024/02/05 04:21:21;;;;;;;8.77;2.17;;;;;;;;;;5084172;28;20080;-68
2024/02/05 04:23:46;;;;;;;4.43;1.48;;;;;;;;;;5069071;28;20042;-67
2024/02/05 04:26:16;;;;;;;9.10;2.63;;;;;;;;;;5067597;28;20075;-68
2024/02/05 04:28:41;;;;;;;9.55;2.70;;;;;;;;;;5085064;28;20036;-69
2024/02/05 04:31:07;;;;;;;13.18;3.00;;;;;;;;;;5083441;28;20040;-69
2024/02/05 04:33:32;;;;;;;20.02;3.42;;;;;;;;;;5079922;28;20040;-69
2024/02/05 04:35:57;;;;;;;9.77;3.13;;;;;;;;;;5060254;28;20090;-69
2024/02/05 04:38:23;;;;;;;14.73;2.97;;;;;;;;;;5092047;28;20039;-68
2024/02/05 04:40:48;;;;;;;8.75;3.25;;;;;;;;;;5067990;28;20037;-69
2024/02/05 04:43:13;;;;;;;4.97;2.03;;;;;;;;;;5088023;28;20036;-68
2024/02/05 04:45:39;;;;;;;5.45;2.05;;;;;;;;;;5071992;28;20400;-68
2024/02/05 04:48:05;;;;;;;8.15;2.45;;;;;;;;;;5056869;28;20466;-68
2024/02/05 04:50:30;;;;;;;17.75;3.00;;;;;;;;;;5068812;28;20105;-69
2024/02/05 04:52:55;;;;;;;13.02;2.60;;;;;;;;;;5069865;28;20044;-68
2024/02/05 04:55:21;;;;;;;10.40;2.22;;;;;;;;;;5079883;28;20056;-68
2024/02/05 04:57:48;;;;;;;16.25;2.53;;;;;;;;;;5079858;28;20053;-69
2024/02/05 05:00:15;;;;;;;6.25;2.20;;;;;;;;;;5078460;28;20040;-68
2024/02/05 05:02:41;;;;;;;4.20;1.85;;;;;;;;;;5064347;28;20064;-68
2024/02/05 05:05:06;;;;;;;7.68;1.10;;;;;;;;;;5065174;28;20459;-68
2024/02/05 05:07:32;;;;;;;8.50;1.73;;;;;;;;;;5078661;28;20070;-68
2024/02/05 05:09:57;;;;;;;11.57;1.40;;;;;;;;;;5070636;28;20494;-68
2024/02/05 05:12:22;;;;;;;12.25;1.50;;;;;;;;;;5073487;28;20028;-68
2024/02/05 05:14:48;;;;;;;5.63;1.45;;;;;;;;;;5078066;28;20101;-69
2024/02/05 05:17:13;;;;;;;8.75;1.52;;;;;;;;;;5083627;28;20043;-68
2024/02/05 05:19:38;;;;;;;13.23;3.05;;;;;;;;;;5084543;28;20036;-69
2024/02/05 05:22:04;;;;;;;6.22;2.05;;;;;;;;;;5060086;28;20037;-69
2024/02/05 05:24:29;;;;;;;15.93;3.00;;;;;;;;;;5062076;28;20041;-68
2024/02/05 05:26:54;;;;;;;1.70;0.90;;;;;;;;;;5064191;28;20028;-69
2024/02/05 05:29:20;;;;;;;9.32;2.33;;;;;;;;;;5066020;28;20032;-68
2024/02/05 05:31:45;;;;;;;5.47;2.33;;;;;;;;;;5059985;28;20037;-68
2024/02/05 05:34:11;;;;;;;5.72;1.63;;;;;;;;;;5056093;28;20041;-69
2024/02/05 05:36:36;;;;;;;14.77;2.20;;;;;;;;;;5067410;28;20045;-68
2024/02/05 05:39:02;;;;;;;9.77;2.25;;;;;;;;;;5062240;28;20037;-69
2024/02/05 05:41:27;;;;;;;10.65;2.60;;;;;;;;;;5069362;28;20082;-69
2024/02/05 05:43:53;;;;;;;6.78;2.05;;;;;;;;;;5066740;28;20036;-69
2024/02/05 05:46:19;;;;;;;11.57;2.10;;;;;;;;;;5083536;28;20090;-68
2024/02/05 05:48:44;;;;;;;7.90;2.60;;;;;;;;;;5059011;28;20035;-69
2024/02/05 05:51:10;;;;;;;6.35;2.15;;;;;;;;;;5058838;28;20059;-69
2024/02/05 05:53:35;;;;;;;6.93;1.63;;;;;;;;;;5089046;28;20039;-68
2024/02/05 05:56:00;;;;;;;9.07;1.58;;;;;;;;;;5077216;28;20036;-69
2024/02/05 05:58:26;;;;;;;16.98;2.88;;;;;;;;;;5083385;28;20086;-68
2024/02/05 06:00:51;;;;;;;7.05;1.48;;;;;;;;;;5071600;28;20045;-68
2024/02/05 06:03:17;;;;;;;8.55;1.70;;;;;;;;;;5077149;28;20112;-68
2024/02/05 06:05:45;;;;;;;9.90;2.00;;;;;;;;;;5074938;28;20059;-69
2024/02/05 06:08:12;;;;;;;6.25;2.35;;;;;;;;;;5052985;28;20033;-69
2024/02/05 06:10:37;;;;;;;6.53;1.35;;;;;;;;;;5065437;28;20408;-69
2024/02/05 06:13:03;;;;;;;4.05;1.17;;;;;;;;;;5067510;28;20040;-70
2024/02/05 06:15:28;;;;;;;7.47;1.20;;;;;;;;;;5074162;28;20040;-69
2024/02/05 06:17:54;;;;;;;2.13;0.88;;;;;;;;;;5063294;28;20032;-69
2024/02/05 06:20:19;;;;;;;4.78;0.77;;;;;;;;;;5071332;28;20040;-68
2024/02/05 06:22:44;;;;;;;3.20;0.70;;;;;;;;;;5067424;28;20124;-69
2024/02/05 06:25:10;;;;;;;4.97;0.93;;;;;;;;;;5072606;28;20029;-69
2024/02/05 06:27:35;;;;;;;1.20;0.40;;;;;;;;;;5074606;28;20032;-68
2024/02/05 06:30:01;;;;;;;4.03;1.05;;;;;;;;;;5076198;28;20094;-69
2024/02/05 06:32:26;;;;;;;0.52;0.32;;;;;;;;;;5078572;28;20036;-69
2024/02/05 06:34:51;;;;;;;2.20;0.70;;;;;;;;;;5076707;28;20036;-68
2024/02/05 06:37:17;;;;;;;0.70;0.50;;;;;;;;;;5086199;28;20085;-68
2024/02/05 06:39:42;;;;;;;4.28;0.55;;;;;;;;;;5081511;28;20092;-69
2024/02/05 06:42:07;;;;;;;1.33;0.50;;;;;;;;;;5070893;28;20040;-68
2024/02/05 06:44:33;;;;;;;2.03;0.40;;;;;;;;;;5061269;28;20033;-69
2024/02/05 06:46:58;;;;;;;0.93;0.50;;;;;;;;;;5071581;28;20055;-69
2024/02/05 06:49:24;;;;;;;4.80;0.50;;;;;;;;;;5083314;28;20064;-69
2024/02/05 06:51:49;;;;;;;0.73;0.40;;;;;;;;;;5066298;28;20045;-69
2024/02/05 06:54:14;;;;;;;0.90;0.30;;;;;;;;;;5052976;28;20025;-69
2024/02/05 06:56:40;;;;;;;1.25;0.43;;;;;;;;;;5081110;28;20438;-69
2024/02/05 06:59:05;;;;;;;0.20;0.20;;;;;;;;;;5075423;28;20536;-69
2024/02/05 07:01:30;;;;;;;1.25;0.30;;;;;;;;;;5078723;28;20484;-69
2024/02/05 07:03:56;;;;;;;1.05;0.63;;;;;;;;;;5074612;28;20460;-69
2024/02/05 07:06:21;;;;;;;0.95;0.45;;;;;;;;;;5069940;28;20387;-68
2024/02/05 07:08:46;;;;;;;0.55;0.30;;;;;;;;;;5070401;28;20427;-69
2024/02/05 07:11:12;;;;;;;6.32;0.30;;;;;;;;;;5064356;28;20029;-69
2024/02/05 07:13:38;;;;;;;0.68;0.32;;;;;;;;;;5073018;28;20036;-69
2024/02/05 07:16:06;;;;;;;2.55;0.30;;;;;;;;;;5075646;28;20128;-69
2024/02/05 07:18:31;;;;;;;1.20;0.20;;;;;;;;;;5087301;28;20047;-69
2024/02/05 07:21:01;;;;;;;0.98;0.30;;;;;;;;;;5088298;28;20040;-69
2024/02/05 07:23:26;;;;;;;0.70;0.30;;;;;;;;;;5052028;28;20033;-69
2024/02/05 07:25:51;;;;;;;0.65;0.28;;;;;;;;;;5074400;28;20120;-69
2024/02/05 07:28:17;;;;;;;0.20;0.20;;;;;;;;;;5071863;28;20069;-69
2024/02/05 07:30:42;;;;;;;1.60;0.40;;;;;;;;;;5066888;28;20037;-68
2024/02/05 07:33:07;;;;;;;0.32;0.25;;;;;;;;;;5057088;28;20033;-69
2024/02/05 07:35:33;;;;;;;1.02;0.25;;;;;;;;;;5066850;28;20106;-69
2024/02/05 07:37:58;;;;;;;0.22;0.22;;;;;;;;;;5070145;28;20028;-69
2024/02/05 07:40:23;;;;;;;0.32;0.30;;;;;;;;;;5068101;28;20480;-69
2024/02/05 07:42:49;;;;;;;1.08;0.30;;;;;;;;;;5062181;28;20028;-68
2024/02/05 07:45:14;;;;;;;1.02;0.30;;;;;;;;;;5070312;28;20078;-69
2024/02/05 07:47:39;;;;;;;0.65;0.30;;;;;;;;;;5071040;28;20435;-69
2024/02/05 07:50:07;;;;;;;1.85;0.45;;;;;;;;;;5056668;28;20037;-70
2024/02/05 07:52:33;;;;;;;0.40;0.30;;;;;;;;;;5068662;28;20480;-69
2024/02/05 07:54:58;;;;;;;0.40;0.30;;;;;;;;;;5071597;28;20047;-69
2024/02/05 07:57:24;;;;;;;0.57;0.35;;;;;;;;;;5080962;28;20480;-69
2024/02/05 07:59:50;;;;;;;0.50;0.28;;;;;;;;;;5075119;28;20115;-70
2024/02/05 08:02:16;;;;;;;0.35;0.30;;;;;;;;;;5061740;28;20536;-68
2024/02/05 08:04:41;;;;;;;1.15;0.35;;;;;;;;;;5072682;28;20123;-69
2024/02/05 08:07:07;;;;;;;0.30;0.30;;;;;;;;;;5069057;28;20029;-68
2024/02/05 08:09:33;;;;;;;0.50;0.30;;;;;;;;;;5075224;28;20044;-69
2024/02/05 08:11:58;;;;;;;0.73;0.32;;;;;;;;;;5067851;28;20094;-69
2024/02/05 08:14:23;;;;;;;0.65;0.40;;;;;;;;;;5058620;28;20032;-70
2024/02/05 08:16:49;;;;;;;0.85;0.30;;;;;;;;;;5072257;28;20036;-68
2024/02/05 08:19:14;;;;;;;0.90;0.50;;;;;;;;;;5073174;28;20028;-68
2024/02/05 08:21:39;;;;;;;0.70;0.30;;;;;;;;;;5061986;28;20119;-69
2024/02/05 08:24:05;;;;;;;0.30;0.20;;;;;;;;;;5076595;28;20125;-69
2024/02/05 08:26:31;;;;;;;0.95;0.40;;;;;;;;;;5069390;28;20053;-69
2024/02/05 08:28:56;;;;;;;0.52;0.30;;;;;;;;;;5078399;28;20028;-69
2024/02/05 08:31:22;;;;;;;1.05;0.55;;;;;;;;;;5065058;28;20094;-69
2024/02/05 08:33:47;;;;;;;0.30;0.30;;;;;;;;;;5070057;28;20042;-68
2024/02/05 08:36:13;;;;;;;2.40;0.50;;;;;;;;;;5081529;28;20039;-68
2024/02/05 08:38:39;;;;;;;1.70;0.35;;;;;;;;;;5068483;28;20120;-68
2024/02/05 08:41:04;;;;;;;1.23;0.60;;;;;;;;;;5069815;28;20119;-69
2024/02/05 08:43:29;;;;;;;1.55;0.40;;;;;;;;;;5068666;28;20055;-68
2024/02/05 08:45:55;;;;;;;0.20;0.20;;;;;;;;;;5059884;28;20068;-68
2024/02/05 08:48:20;;;;;;;1.55;0.45;;;;;;;;;;5072458;28;20071;-69
2024/02/05 08:50:45;;;;;;;0.20;0.20;;;;;;;;;;5063817;28;20067;-68
2024/02/05 08:53:12;;;;;;;1.85;0.38;;;;;;;;;;5070662;28;20085;-68
2024/02/05 08:55:38;;;;;;;1.52;0.50;;;;;;;;;;5075763;28;20040;-68
2024/02/05 08:58:03;;;;;;;1.13;0.40;;;;;;;;;;5070979;28;20634;-69
2024/02/05 09:00:29;;;;;;;2.10;0.47;;;;;;;;;;5072948;28;20074;-69
2024/02/05 09:02:55;;;;;;;0.43;0.30;;;;;;;;;;5086530;28;20446;-68
2024/02/05 09:05:20;;;;;;;0.63;0.40;;;;;;;;;;5085579;28;20052;-69
2024/02/05 09:07:46;;;;;;;0.40;0.30;;;;;;;;;;5082242;28;20044;-68
2024/02/05 09:10:11;;;;;;;0.63;0.22;;;;;;;;;;5074980;28;20387;-68
2024/02/05 09:12:36;;;;;;;3.45;0.40;;;;;;;;;;5063495;28;20037;-68
2024/02/05 09:15:03;;;;;;;2.35;0.52;;;;;;;;;;5061496;28;20056;-69
2024/02/05 09:17:29;;;;;;;1.00;0.35;;;;;;;;;;5064245;28;20041;-69
2024/02/05 09:19:54;;;;;;;0.65;0.30;;;;;;;;;;5061620;28;20039;-68
2024/02/05 09:22:19;;;;;;;0.20;0.20;;;;;;;;;;5055692;28;20136;-69
2024/02/05 09:24:45;;;;;;;1.95;0.40;;;;;;;;;;5070179;28;20040;-68
2024/02/05 09:27:11;;;;;;;1.58;0.57;;;;;;;;;;5064091;28;20155;-69
2024/02/05 09:29:36;;;;;;;5.57;3.00;;;;;;;;;;5058423;28;20036;-69
2024/02/05 09:32:01;;;;;;;10.70;4.50;;;;;;;;;;5053357;28;20365;-68
2024/02/05 09:34:27;;;;;;;2.13;0.90;;;;;;;;;;5066641;28;20075;-68
2024/02/05 09:36:52;;;;;;;2.67;0.65;;;;;;;;;;5068752;28;20126;-68
2024/02/05 09:39:17;;;;;;;1.63;0.60;;;;;;;;;;5071983;28;20036;-68
2024/02/05 09:41:43;;;;;;;3.08;0.60;;;;;;;;;;5058953;28;20082;-68
2024/02/05 09:44:09;;;;;;;2.05;0.73;;;;;;;;;;5068307;28;20193;-69
2024/02/05 09:46:34;;;;;;;2.08;0.85;;;;;;;;;;5076076;28;20040;-69
2024/02/05 09:49:04;;;;;;;1.20;0.40;;;;;;;;;;5076017;28;20036;-68
2024/02/05 09:51:29;;;;;;;2.20;0.90;;;;;;;;;;5073488;28;20041;-69
2024/02/05 09:53:56;;;;;;;3.97;0.70;;;;;;;;;;5082612;28;20062;-69
2024/02/05 09:56:25;;;;;;;2.75;0.88;;;;;;;;;;5070691;28;20029;-69
2024/02/05 09:58:51;;;;;;;1.10;0.45;;;;;;;;;;5054241;28;20503;-69
2024/02/05 10:01:16;;;;;;;1.13;0.52;;;;;;;;;;5060775;28;20029;-69
2024/02/05 10:03:43;;;;;;;1.80;0.50;;;;;;;;;;5071618;28;20020;-69
2024/02/05 10:06:10;;;;;;;0.68;0.43;;;;;;;;;;5081186;28;20047;-69
2024/02/05 10:08:36;;;;;;;1.25;0.57;;;;;;;;;;5078169;28;20093;-69
2024/02/05 10:11:02;;;;;;;2.92;0.60;;;;;;;;;;5061033;28;20049;-68
2024/02/05 10:13:29;;;;;;;1.13;0.60;;;;;;;;;;5064343;28;20033;-68
2024/02/05 10:15:54;;;;;;;1.15;0.60;;;;;;;;;;5063895;28;20516;-69
2024/02/05 10:18:20;;;;;;;0.73;0.40;;;;;;;;;;5062118;28;20032;-69
2024/02/05 10:20:46;;;;;;;1.23;0.52;;;;;;;;;;5059289;28;20036;-69
2024/02/05 10:23:12;;;;;;;2.83;0.55;;;;;;;;;;5060514;28;20115;-69
2024/02/05 10:25:38;;;;;;;1.98;0.68;;;;;;;;;;5059169;28;20111;-68
2024/02/05 10:28:06;;;;;;;4.30;0.70;;;;;;;;;;5066956;28;20036;-69
2024/02/05 10:30:32;;;;;;;1.20;0.63;;;;;;;;;;5060834;28;20070;-68
2024/02/05 10:32:58;;;;;;;0.77;0.52;;;;;;;;;;5069823;28;20052;-69
2024/02/05 10:35:25;;;;;;;1.08;0.45;;;;;;;;;;5076413;28;20039;-68
2024/02/05 10:37:50;;;;;;;0.43;0.40;;;;;;;;;;5080951;28;20046;-69
2024/02/05 10:40:15;;;;;;;1.42;0.50;;;;;;;;;;5077976;28;20099;-68
2024/02/05 10:42:44;;;;;;;2.17;0.45;;;;;;;;;;5067747;28;20564;-69
2024/02/05 10:45:10;;;;;;;0.80;0.40;;;;;;;;;;5067873;28;20545;-69
2024/02/05 10:47:36;;;;;;;0.90;0.40;;;;;;;;;;5039822;28;20052;-69
2024/02/05 10:50:03;;;;;;;0.30;0.30;;;;;;;;;;5073912;28;20175;-68
2024/02/05 10:52:29;;;;;;;0.63;0.40;;;;;;;;;;5060210;28;20067;-69
2024/02/05 10:54:57;;;;;;;1.25;0.40;;;;;;;;;;5066598;28;20125;-69
2024/02/05 10:57:24;;;;;;;1.33;0.50;;;;;;;;;;5071068;28;20063;-68
2024/02/05 10:59:50;;;;;;;3.38;0.70;;;;;;;;;;5067093;28;20119;-69
2024/02/05 11:02:25;;;;;;;2.22;0.80;;;;;;;;;;5067424;28;20166;-68
2024/02/05 11:04:52;;;;;;;0.75;0.60;;;;;;;;;;5078812;28;20047;-68
2024/02/05 11:07:20;;;;;;;2.17;0.85;;;;;;;;;;5074498;28;20496;-69
2024/02/05 11:09:48;;;;;;;1.42;0.60;;;;;;;;;;5064937;28;20111;-69
2024/02/05 11:12:13;;;;;;;3.28;1.00;;;;;;;;;;5071554;28;20497;-69
2024/02/05 11:14:40;;;;;;;1.52;0.65;;;;;;;;;;5078446;28;20067;-69
2024/02/05 11:17:06;;;;;;;5.68;1.10;;;;;;;;;;5078850;28;20096;-69
2024/02/05 11:19:32;;;;;;;3.20;1.60;;;;;;;;;;5077608;28;20615;-69
2024/02/05 11:21:58;;;;;;;2.55;1.00;;;;;;;;;;5081901;28;20047;-68
2024/02/05 11:24:24;;;;;;;2.42;1.33;;;;;;;;;;5076708;28;20077;-69
2024/02/05 11:26:52;;;;;;;2.63;1.25;;;;;;;;;;5083916;28;20110;-69
2024/02/05 11:29:26;;;;;;;1.70;0.82;;;;;;;;;;5081778;28;20044;-69
2024/02/05 11:31:55;;;;;;;1.95;0.68;;;;;;;;;;5052408;28;20051;-69
2024/02/05 11:34:21;;;;;;;3.50;0.93;;;;;;;;;;5069842;28;20093;-70
2024/02/05 11:36:46;;;;;;;1.48;0.80;;;;;;;;;;5076831;28;20114;-68
2024/02/05 11:39:12;;;;;;;2.33;1.33;;;;;;;;;;5072960;28;20096;-69
2024/02/05 11:41:37;;;;;;;4.30;1.20;;;;;;;;;;5074974;28;20178;-68
2024/02/05 11:44:07;;;;;;;4.32;1.10;;;;;;;;;;5058596;28;20048;-68
2024/02/05 11:46:34;;;;;;;7.43;3.05;;;;;;;;;;5061238;28;20135;-69
2024/02/05 11:49:01;;;;;;;17.60;4.38;;;;;;;;;;5059937;28;20075;-68
2024/02/05 11:51:27;;;;;;;3.03;1.65;;;;;;;;;;5067037;28;20046;-69
2024/02/05 11:53:54;;;;;;;2.47;0.80;;;;;;;;;;5067584;28;20036;-69
2024/02/05 11:56:19;;;;;;;1.60;0.73;;;;;;;;;;5066451;28;20043;-69
2024/02/05 11:58:45;;;;;;;3.25;0.50;;;;;;;;;;5071705;28;20040;-69
2024/02/05 12:01:11;;;;;;;1.25;0.32;;;;;;;;;;5066564;28;20040;-69
2024/02/05 12:03:37;;;;;;;1.85;0.73;;;;;;;;;;5073172;28;20036;-70
2024/02/05 12:06:03;;;;;;;1.83;0.60;;;;;;;;;;5065845;28;20684;-68
2024/02/05 12:08:30;;;;;;;1.38;0.60;;;;;;;;;;5072100;28;20048;-69
2024/02/05 12:10:55;;;;;;;2.08;0.70;;;;;;;;;;5050526;28;20048;-68
2024/02/05 12:13:21;;;;;;;1.27;0.80;;;;;;;;;;5070540;28;20097;-69
2024/02/05 12:15:47;;;;;;;3.25;0.80;;;;;;;;;;5056672;28;20047;-68
2024/02/05 12:18:13;;;;;;;3.63;0.77;;;;;;;;;;5070460;28;20271;-69
2024/02/05 12:20:38;;;;;;;1.95;0.90;;;;;;;;;;5060765;28;20371;-69
2024/02/05 12:23:04;;;;;;;3.30;1.10;;;;;;;;;;5068838;28;20036;-69
2024/02/05 12:25:29;;;;;;;1.20;0.80;;;;;;;;;;5066342;28;20064;-69
2024/02/05 12:27:55;;;;;;;6.25;1.63;;;;;;;;;;5062390;28;20100;-69
2024/02/05 12:30:20;;;;;;;2.97;1.23;;;;;;;;;;5067752;28;20067;-69
2024/02/05 12:32:56;;;;;;;3.90;1.25;;;;;;;;;;5071940;28;20032;-68
2024/02/05 12:35:22;;;;;;;2.78;1.50;;;;;;;;;;5066695;28;20098;-68
2024/02/05 12:37:49;;;;;;;9.38;1.83;;;;;;;;;;5077719;28;20044;-68
2024/02/05 12:40:15;;;;;;;4.15;1.08;;;;;;;;;;5076449;28;20472;-69
2024/02/05 12:42:40;;;;;;;4.85;1.65;;;;;;;;;;5075725;28;20097;-68
2024/02/05 12:45:06;;;;;;;11.38;2.30;;;;;;;;;;5074110;28;20063;-68
2024/02/05 12:47:31;;;;;;;9.25;1.63;;;;;;;;;;5077242;28;20039;-69
2024/02/05 12:49:57;;;;;;;7.35;1.92;;;;;;;;;;5080364;28;20609;-69
2024/02/05 12:52:23;;;;;;;6.93;1.60;;;;;;;;;;5064385;28;20365;-69
2024/02/05 12:54:49;;;;;;;7.93;2.05;;;;;;;;;;5069767;28;20046;-69
2024/02/05 12:57:14;;;;;;;6.88;2.03;;;;;;;;;;5063956;28;20611;-69
2024/02/05 12:59:40;;;;;;;7.57;2.25;;;;;;;;;;5057024;28;20426;-69
2024/02/05 13:02:06;;;;;;;9.63;1.98;;;;;;;;;;5063019;28;20056;-69
2024/02/05 13:04:32;;;;;;;5.10;1.77;;;;;;;;;;5062132;28;20053;-68
2024/02/05 13:07:07;;;;;;;7.38;2.42;;;;;;;;;;5063945;28;20056;-69
2024/02/05 13:09:34;;;;;;;5.50;1.70;;;;;;;;;;5060781;28;20459;-69
2024/02/05 13:12:00;;;;;;;8.45;1.63;;;;;;;;;;5063171;28;20071;-68
2024/02/05 13:14:26;;;;;;;5.45;1.63;;;;;;;;;;5069841;28;20040;-69
2024/02/05 13:16:54;;;;;;;11.98;2.20;;;;;;;;;;5060075;28;20444;-69
2024/02/05 13:19:19;;;;;;;9.18;2.28;;;;;;;;;;5065007;28;20131;-69
2024/02/05 13:21:45;;;;;;;6.22;1.77;;;;;;;;;;5074530;28;20107;-68
2024/02/05 13:24:13;;;;;;;5.28;2.15;;;;;;;;;;5062851;28;20085;-69
2024/02/05 13:26:40;;;;;;;6.22;1.70;;;;;;;;;;5069651;28;20039;-69
2024/02/05 13:29:06;;;;;;;7.72;2.42;;;;;;;;;;5049092;28;20071;-69
2024/02/05 13:31:31;;;;;;;11.90;2.30;;;;;;;;;;5065376;28;20106;-69
2024/02/05 13:33:56;;;;;;;11.23;2.17;;;;;;;;;;5066141;28;20395;-69
2024/02/05 13:36:22;;;;;;;10.32;2.53;;;;;;;;;;5062391;28;20072;-69
2024/02/05 13:38:47;;;;;;;10.45;2.05;;;;;;;;;;5057969;28;20059;-69
2024/02/05 13:41:12;;;;;;;6.20;2.42;;;;;;;;;;5053029;28;20032;-69
2024/02/05 13:43:38;;;;;;;8.45;2.10;;;;;;;;;;5065822;28;20044;-69
2024/02/05 13:46:03;;;;;;;11.80;2.20;;;;;;;;;;5056128;28;20044;-69
2024/02/05 13:48:30;;;;;;;11.88;1.95;;;;;;;;;;5061102;28;20854;-69
2024/02/05 13:50:55;;;;;;;9.23;2.95;;;;;;;;;;5062774;28;20029;-69
2024/02/05 13:53:21;;;;;;;12.55;1.92;;;;;;;;;;5052069;28;20442;-69
2024/02/05 13:55:46;;;;;;;4.63;1.48;;;;;;;;;;5062397;28;20045;-69
2024/02/05 13:58:11;;;;;;;13.02;2.28;;;;;;;;;;5062461;28;20060;-69
2024/02/05 14:00:37;;;;;;;10.52;2.70;;;;;;;;;;5063515;28;20047;-69
2024/02/05 14:03:02;;;;;;;7.65;2.50;;;;;;;;;;5065615;28;20101;-69
2024/02/05 14:05:27;;;;;;;11.70;2.55;;;;;;;;;;5066314;28;20036;-69
2024/02/05 14:07:53;;;;;;;8.07;2.13;;;;;;;;;;5072119;28;20033;-69
2024/02/05 14:10:18;;;;;;;8.88;2.45;;;;;;;;;;5065606;28;20063;-68
2024/02/05 14:12:43;;;;;;;15.15;2.80;;;;;;;;;;5064231;28;20085;-68
2024/02/05 14:15:09;;;;;;;9.25;2.20;;;;;;;;;;5071152;28;20031;-69
2024/02/05 14:17:34;;;;;;;12.57;2.25;;;;;;;;;;5060836;28;20040;-69
2024/02/05 14:20:00;;;;;;;13.48;2.55;;;;;;;;;;5060584;28;20082;-70
2024/02/05 14:22:25;;;;;;;8.40;2.38;;;;;;;;;;5055047;28;20080;-68
2024/02/05 14:24:50;;;;;;;17.17;2.38;;;;;;;;;;5068018;28;20082;-68
2024/02/05 14:27:16;;;;;;;9.23;2.28;;;;;;;;;;5063136;28;20072;-68
2024/02/05 14:29:42;;;;;;;10.82;2.78;;;;;;;;;;5081846;28;20081;-69